Time;durP1;ratioP1;P1;durP2;ratioP2;P2;SDS_P1;SDS_P2;PMS_P1;PMS_P2;Temp;Humidity;BMP_temperature;BMP_pressure;BME280_temperature;BME280_humidity;BME280_pressure;Samples;Min_cycle;Max_cycle;Signal;HPM_P1;HPM_P2
2024/02/26 00:02:08;;;;;;;4.68;1.88;;;-0.80;100.00;;;;;;5043967;28;20052;-73
2024/02/26 00:04:34;;;;;;;4.93;2.35;;;-0.80;100.00;;;;;;5044056;28;20081;-73
2024/02/26 00:07:01;;;;;;;8.35;2.35;;;-0.80;100.00;;;;;;5044578;28;20114;-71
2024/02/26 00:09:28;;;;;;;3.75;1.98;;;-0.80;100.00;;;;;;5044618;28;20127;-72
2024/02/26 00:11:55;;;;;;;6.53;1.98;;;-0.80;100.00;;;;;;5049478;28;20060;-71
2024/02/26 00:14:22;;;;;;;6.15;2.45;;;-0.80;100.00;;;;;;5044171;28;20074;-72
2024/02/26 00:16:49;;;;;;;8.68;3.03;;;-0.90;100.00;;;;;;5045817;28;20773;-71
2024/02/26 00:19:15;;;;;;;6.20;2.38;;;-0.80;100.00;;;;;;5050598;28;20055;-71
2024/02/26 00:21:43;;;;;;;6.20;2.45;;;-0.80;100.00;;;;;;5042254;28;20158;-71
2024/02/26 00:24:09;;;;;;;10.05;2.10;;;-0.90;100.00;;;;;;5059500;28;20072;-71
2024/02/26 00:26:36;;;;;;;3.97;2.33;;;-0.90;100.00;;;;;;5044095;28;20135;-71
2024/02/26 00:29:03;;;;;;;3.30;1.88;;;-0.90;100.00;;;;;;5048450;28;20049;-71
2024/02/26 00:31:30;;;;;;;4.53;2.25;;;-0.90;100.00;;;;;;5044988;28;20524;-71
2024/02/26 00:33:57;;;;;;;4.22;1.88;;;-0.90;100.00;;;;;;5042212;28;20132;-71
2024/02/26 00:36:24;;;;;;;3.95;2.30;;;-0.90;100.00;;;;;;5050205;28;20047;-71
2024/02/26 00:38:51;;;;;;;3.15;1.77;;;-1.00;100.00;;;;;;5057199;28;20511;-71
2024/02/26 00:41:19;;;;;;;5.82;2.15;;;-1.00;100.00;;;;;;5050623;28;21149;-71
2024/02/26 00:43:46;;;;;;;6.13;2.08;;;-1.00;100.00;;;;;;5047200;28;20049;-71
2024/02/26 00:46:13;;;;;;;6.80;2.13;;;-1.00;100.00;;;;;;5067187;28;20859;-71
2024/02/26 00:48:40;;;;;;;4.72;2.78;;;-1.00;100.00;;;;;;5051158;28;20052;-71
2024/02/26 00:51:07;;;;;;;8.13;1.70;;;-1.00;100.00;;;;;;5052558;28;20512;-71
2024/02/26 00:53:34;;;;;;;3.65;2.17;;;-1.00;100.00;;;;;;5046663;28;20094;-71
2024/02/26 00:56:01;;;;;;;3.42;1.95;;;-1.00;100.00;;;;;;5055857;28;20186;-71
2024/02/26 00:58:28;;;;;;;5.88;2.35;;;-1.10;100.00;;;;;;5053416;28;20057;-71
2024/02/26 01:00:55;;;;;;;3.35;2.13;;;-1.10;100.00;;;;;;5053910;28;20045;-71
2024/02/26 01:03:22;;;;;;;5.60;2.30;;;-1.10;100.00;;;;;;5045178;28;20147;-71
2024/02/26 01:05:49;;;;;;;4.53;2.38;;;-1.10;100.00;;;;;;5052126;28;20083;-71
2024/02/26 01:08:16;;;;;;;5.60;2.38;;;-1.20;100.00;;;;;;5062684;28;20051;-71
2024/02/26 01:10:43;;;;;;;4.32;2.20;;;-1.20;100.00;;;;;;5047595;28;20429;-71
2024/02/26 01:13:09;;;;;;;4.90;2.28;;;-1.20;100.00;;;;;;5046407;28;20056;-71
2024/02/26 01:15:36;;;;;;;5.15;2.10;;;-1.20;100.00;;;;;;5054942;28;20137;-71
2024/02/26 01:18:03;;;;;;;5.40;2.63;;;-1.20;100.00;;;;;;5051963;28;20056;-71
2024/02/26 01:20:30;;;;;;;3.42;2.13;;;-1.20;100.00;;;;;;5047553;28;20128;-71
2024/02/26 01:22:57;;;;;;;5.15;2.75;;;-1.20;100.00;;;;;;5046824;28;20126;-71
2024/02/26 01:25:23;;;;;;;4.85;2.45;;;-1.20;100.00;;;;;;5053256;28;20052;-71
2024/02/26 01:27:50;;;;;;;4.22;2.25;;;-1.20;100.00;;;;;;5037465;28;20088;-71
2024/02/26 01:30:17;;;;;;;5.78;2.40;;;-1.30;100.00;;;;;;5053541;28;20060;-71
2024/02/26 01:32:44;;;;;;;5.13;2.72;;;-1.30;100.00;;;;;;5049348;28;20138;-71
2024/02/26 01:35:11;;;;;;;7.10;2.53;;;-1.30;100.00;;;;;;5047555;28;20127;-71
2024/02/26 01:37:39;;;;;;;5.32;2.45;;;-1.30;100.00;;;;;;5053194;28;20056;-71
2024/02/26 01:40:06;;;;;;;3.88;2.20;;;-1.30;100.00;;;;;;5046464;28;20534;-71
2024/02/26 01:42:34;;;;;;;4.75;2.40;;;-1.40;100.00;;;;;;5056956;28;20720;-71
2024/02/26 01:45:01;;;;;;;3.85;2.30;;;-1.40;100.00;;;;;;5052178;28;20185;-71
2024/02/26 01:47:28;;;;;;;6.00;2.45;;;-1.40;100.00;;;;;;5045953;28;20084;-71
2024/02/26 01:49:55;;;;;;;5.07;2.60;;;-1.40;100.00;;;;;;5050321;28;20540;-71
2024/02/26 01:52:23;;;;;;;9.27;4.95;;;-1.40;100.00;;;;;;5049380;28;20045;-71
2024/02/26 01:54:50;;;;;;;7.95;2.60;;;-1.40;100.00;;;;;;5042048;28;20048;-71
2024/02/26 01:57:17;;;;;;;3.53;2.08;;;-1.30;100.00;;;;;;5045311;28;20126;-71
2024/02/26 01:59:45;;;;;;;3.22;2.05;;;-1.30;100.00;;;;;;5047262;28;20044;-71
2024/02/26 02:02:12;;;;;;;3.63;2.20;;;-1.30;100.00;;;;;;5050942;28;20071;-71
2024/02/26 02:04:39;;;;;;;4.25;2.38;;;-1.30;100.00;;;;;;5047809;28;20056;-71
2024/02/26 02:07:06;;;;;;;5.30;2.70;;;-1.30;100.00;;;;;;5044135;28;20044;-71
2024/02/26 02:09:34;;;;;;;5.88;2.63;;;-1.30;100.00;;;;;;5046390;28;20056;-71
2024/02/26 02:12:00;;;;;;;4.30;2.33;;;-1.40;100.00;;;;;;5059836;28;20127;-71
2024/02/26 02:14:27;;;;;;;5.28;2.42;;;-1.40;100.00;;;;;;5044560;28;20048;-71
2024/02/26 02:16:54;;;;;;;3.72;2.45;;;-1.40;100.00;;;;;;5048320;28;20075;-71
2024/02/26 02:19:21;;;;;;;3.33;2.10;;;-1.40;100.00;;;;;;5045756;28;20067;-71
2024/02/26 02:21:48;;;;;;;3.67;2.05;;;-1.50;100.00;;;;;;5045716;28;20049;-71
2024/02/26 02:24:15;;;;;;;3.83;2.25;;;-1.50;100.00;;;;;;5052594;28;20044;-71
2024/02/26 02:26:42;;;;;;;3.85;1.90;;;-1.50;100.00;;;;;;5045527;28;20075;-70
2024/02/26 02:29:09;;;;;;;5.05;2.42;;;-1.50;100.00;;;;;;5049990;28;20048;-71
2024/02/26 02:31:36;;;;;;;14.30;2.40;;;-1.60;100.00;;;;;;5048497;28;20044;-71
2024/02/26 02:34:03;;;;;;;11.73;2.28;;;-1.60;100.00;;;;;;5048779;28;20479;-70
2024/02/26 02:36:30;;;;;;;5.18;2.13;;;-1.60;100.00;;;;;;5045954;28;20128;-71
2024/02/26 02:38:57;;;;;;;3.75;2.33;;;-1.60;100.00;;;;;;5052701;28;20090;-71
2024/02/26 02:41:26;;;;;;;5.53;2.75;;;-1.60;100.00;;;;;;5049780;28;20132;-70
2024/02/26 02:43:53;;;;;;;8.20;3.55;;;-1.60;100.00;;;;;;5056017;28;20049;-71
2024/02/26 02:46:20;;;;;;;12.70;4.20;;;-1.60;100.00;;;;;;5046848;28;20105;-71
2024/02/26 02:48:46;;;;;;;14.82;4.57;;;-1.70;100.00;;;;;;5056141;28;20132;-71
2024/02/26 02:51:13;;;;;;;15.90;5.57;;;-1.60;100.00;;;;;;5046985;28;20659;-71
2024/02/26 02:53:40;;;;;;;12.02;5.13;;;-1.60;100.00;;;;;;5048465;28;20057;-71
2024/02/26 02:56:07;;;;;;;18.95;6.13;;;-1.70;100.00;;;;;;5046048;28;20774;-71
2024/02/26 02:58:34;;;;;;;14.15;5.00;;;-1.70;100.00;;;;;;5052334;28;20049;-71
2024/02/26 03:01:01;;;;;;;13.82;5.22;;;-1.70;100.00;;;;;;5052377;28;20749;-71
2024/02/26 03:03:28;;;;;;;16.67;5.70;;;-1.70;100.00;;;;;;5049695;28;20061;-71
2024/02/26 03:05:56;;;;;;;13.02;5.28;;;-1.70;100.00;;;;;;5044452;28;20071;-71
2024/02/26 03:08:25;;;;;;;10.55;4.60;;;-1.70;100.00;;;;;;5044476;28;20080;-71
2024/02/26 03:10:52;;;;;;;12.57;4.88;;;-1.70;100.00;;;;;;5044019;28;20052;-71
2024/02/26 03:13:19;;;;;;;13.85;4.85;;;-1.70;100.00;;;;;;5048677;28;20067;-71
2024/02/26 03:15:45;;;;;;;16.25;4.97;;;-1.70;100.00;;;;;;5048929;28;20655;-71
2024/02/26 03:18:12;;;;;;;10.35;4.07;;;-1.70;100.00;;;;;;5045541;28;20055;-71
2024/02/26 03:20:39;;;;;;;11.40;3.22;;;-1.80;100.00;;;;;;5047777;28;20048;-71
2024/02/26 03:23:06;;;;;;;6.93;3.30;;;-1.80;100.00;;;;;;5049872;28;20044;-70
2024/02/26 03:25:33;;;;;;;8.20;3.33;;;-1.80;100.00;;;;;;5051196;28;20102;-71
2024/02/26 03:28:00;;;;;;;5.57;2.90;;;-1.80;100.00;;;;;;5050749;28;20045;-71
2024/02/26 03:30:27;;;;;;;7.15;2.83;;;-1.80;100.00;;;;;;5044634;28;20432;-71
2024/02/26 03:32:54;;;;;;;8.35;2.50;;;-1.80;100.00;;;;;;5062496;28;20048;-71
2024/02/26 03:35:21;;;;;;;4.05;2.17;;;-1.90;100.00;;;;;;5045246;28;20052;-71
2024/02/26 03:37:47;;;;;;;5.05;2.25;;;-1.90;100.00;;;;;;5044458;28;20074;-71
2024/02/26 03:40:14;;;;;;;4.45;2.03;;;-1.90;100.00;;;;;;5043000;28;20091;-71
2024/02/26 03:42:41;;;;;;;5.95;2.53;;;-1.90;100.00;;;;;;5043875;28;20061;-70
2024/02/26 03:45:09;;;;;;;5.82;2.67;;;-1.90;100.00;;;;;;5050613;28;20120;-71
2024/02/26 03:47:39;;;;;;;6.07;3.20;;;-1.90;100.00;;;;;;5048353;28;20195;-71
2024/02/26 03:50:07;;;;;;;10.80;2.40;;;-1.90;100.00;;;;;;5056070;28;20144;-71
2024/02/26 03:52:34;;;;;;;5.05;2.58;;;-2.00;100.00;;;;;;5044190;28;20516;-70
2024/02/26 03:55:01;;;;;;;4.57;2.40;;;-2.00;100.00;;;;;;5064344;28;20056;-70
2024/02/26 03:57:27;;;;;;;4.65;2.55;;;-2.00;100.00;;;;;;5053309;28;20153;-70
2024/02/26 03:59:54;;;;;;;5.88;2.25;;;-2.00;100.00;;;;;;5047361;28;20043;-70
2024/02/26 04:02:22;;;;;;;4.60;2.38;;;-2.00;100.00;;;;;;5042339;28;20049;-71
2024/02/26 04:04:50;;;;;;;6.28;2.63;;;-2.00;100.00;;;;;;5047090;28;20526;-71
2024/02/26 04:07:17;;;;;;;4.57;2.38;;;-2.10;100.00;;;;;;5054528;28;20053;-70
2024/02/26 04:09:44;;;;;;;5.13;2.75;;;-2.10;100.00;;;;;;5054703;28;20064;-71
2024/02/26 04:12:11;;;;;;;9.07;2.70;;;-2.10;100.00;;;;;;5047521;28;20733;-70
2024/02/26 04:14:38;;;;;;;5.55;2.85;;;-2.10;100.00;;;;;;5061177;28;20147;-70
2024/02/26 04:17:04;;;;;;;5.13;2.38;;;-2.10;100.00;;;;;;5055735;28;20114;-70
2024/02/26 04:19:31;;;;;;;7.38;2.88;;;-2.10;100.00;;;;;;5048391;28;20130;-71
2024/02/26 04:21:59;;;;;;;8.77;2.95;;;-2.10;100.00;;;;;;5050767;28;20127;-71
2024/02/26 04:24:26;;;;;;;6.43;2.63;;;-2.20;100.00;;;;;;5046367;28;20145;-71
2024/02/26 04:26:53;;;;;;;5.90;2.63;;;-2.20;100.00;;;;;;5053930;28;20055;-71
2024/02/26 04:29:20;;;;;;;4.88;2.65;;;-2.20;100.00;;;;;;5052045;28;20119;-70
2024/02/26 04:31:47;;;;;;;8.93;3.00;;;-2.20;100.00;;;;;;5049454;28;20198;-71
2024/02/26 04:34:14;;;;;;;5.28;3.08;;;-2.20;100.00;;;;;;5059140;28;20631;-71
2024/02/26 04:36:42;;;;;;;6.35;2.90;;;-2.20;100.00;;;;;;5051094;28;20056;-70
2024/02/26 04:39:10;;;;;;;4.55;2.60;;;-2.20;100.00;;;;;;5056593;28;20111;-70
2024/02/26 04:41:36;;;;;;;5.90;2.30;;;-2.20;100.00;;;;;;5048782;28;20121;-70
2024/02/26 04:44:03;;;;;;;6.80;2.88;;;-2.20;100.00;;;;;;5058379;28;20056;-70
2024/02/26 04:46:30;;;;;;;6.93;3.42;;;-2.20;100.00;;;;;;5047790;28;20069;-71
2024/02/26 04:48:58;;;;;;;7.25;3.40;;;-2.30;100.00;;;;;;5047756;28;20048;-70
2024/02/26 04:51:25;;;;;;;6.30;2.88;;;-2.20;100.00;;;;;;5048473;28;20052;-70
2024/02/26 04:53:53;;;;;;;9.82;3.78;;;-2.30;100.00;;;;;;5048243;28;20045;-71
2024/02/26 04:56:21;;;;;;;9.30;3.53;;;-2.20;100.00;;;;;;5046085;28;20126;-71
2024/02/26 04:58:48;;;;;;;8.77;3.38;;;-2.20;100.00;;;;;;5055561;28;20044;-71
2024/02/26 05:01:16;;;;;;;6.90;3.20;;;-2.20;100.00;;;;;;5048316;28;20461;-71
2024/02/26 05:03:43;;;;;;;5.65;2.67;;;-2.20;100.00;;;;;;5046562;28;20064;-71
2024/02/26 05:06:10;;;;;;;5.45;3.00;;;-2.20;100.00;;;;;;5046849;28;20056;-71
2024/02/26 05:08:38;;;;;;;6.00;3.08;;;-2.30;100.00;;;;;;5051168;28;20045;-71
2024/02/26 05:11:08;;;;;;;6.90;2.90;;;-2.30;100.00;;;;;;5056768;28;20115;-71
2024/02/26 05:13:34;;;;;;;6.72;3.25;;;-2.30;100.00;;;;;;5054688;28;20045;-71
2024/02/26 05:16:01;;;;;;;9.55;3.22;;;-2.30;100.00;;;;;;5058183;28;20048;-71
2024/02/26 05:18:28;;;;;;;7.35;3.53;;;-2.30;100.00;;;;;;5049333;28;20136;-71
2024/02/26 05:20:55;;;;;;;7.28;3.67;;;-2.30;100.00;;;;;;5046558;28;20045;-71
2024/02/26 05:23:22;;;;;;;10.93;4.22;;;-2.30;100.00;;;;;;5046742;28;20060;-71
2024/02/26 05:25:49;;;;;;;14.57;6.85;;;-2.30;100.00;;;;;;5054642;28;20049;-71
2024/02/26 05:28:16;;;;;;;17.10;6.22;;;-2.30;100.00;;;;;;5051235;28;20143;-71
2024/02/26 05:30:43;;;;;;;10.32;3.40;;;-2.40;100.00;;;;;;5045191;28;20048;-72
2024/02/26 05:33:10;;;;;;;8.48;3.75;;;-2.30;100.00;;;;;;5046064;28;20072;-71
2024/02/26 05:35:41;;;;;;;11.85;5.28;;;-2.40;100.00;;;;;;5046092;28;20745;-72
2024/02/26 05:38:08;;;;;;;10.45;5.20;;;-2.40;100.00;;;;;;5045747;28;20041;-72
2024/02/26 05:40:35;;;;;;;13.75;5.43;;;-2.40;100.00;;;;;;5045267;28;20554;-71
2024/02/26 05:43:02;;;;;;;13.13;5.38;;;-2.40;100.00;;;;;;5049536;28;20325;-75
2024/02/26 05:45:29;;;;;;;12.73;5.28;;;-2.40;100.00;;;;;;5054317;28;20041;-75
2024/02/26 05:47:56;;;;;;;11.95;4.30;;;-2.40;100.00;;;;;;5060966;28;20056;-75
2024/02/26 05:50:23;;;;;;;14.00;3.67;;;-2.40;100.00;;;;;;5061244;28;20083;-77
2024/02/26 05:52:49;;;;;;;7.78;3.97;;;-2.40;100.00;;;;;;5051657;28;20048;-73
2024/02/26 05:55:16;;;;;;;10.07;4.53;;;-2.30;100.00;;;;;;5051372;28;20080;-74
2024/02/26 05:57:43;;;;;;;8.20;4.20;;;-2.30;100.00;;;;;;5048603;28;20197;-71
2024/02/26 06:00:12;;;;;;;9.93;4.63;;;-2.30;100.00;;;;;;5060024;28;20055;-79
2024/02/26 06:02:41;;;;;;;10.15;5.10;;;-2.30;100.00;;;;;;5051333;28;20060;-76
2024/02/26 06:05:08;;;;;;;8.80;4.28;;;-2.30;100.00;;;;;;5048684;28;20060;-75
2024/02/26 06:07:36;;;;;;;10.57;4.05;;;-2.30;100.00;;;;;;5049179;28;20063;-73
2024/02/26 06:10:04;;;;;;;7.43;3.80;;;-2.30;100.00;;;;;;5053015;28;20111;-74
2024/02/26 06:12:32;;;;;;;7.78;3.92;;;-2.30;100.00;;;;;;5049170;28;20104;-79
2024/02/26 06:15:01;;;;;;;11.63;4.30;;;-2.20;100.00;;;;;;5051643;28;20045;-72
2024/02/26 06:17:28;;;;;;;12.13;3.78;;;-2.20;100.00;;;;;;5054567;28;20056;-74
2024/02/26 06:19:55;;;;;;;7.18;4.10;;;-2.20;100.00;;;;;;5055603;28;20044;-74
2024/02/26 06:22:22;;;;;;;7.65;4.05;;;-2.20;100.00;;;;;;5053982;28;20084;-74
2024/02/26 06:24:49;;;;;;;6.50;3.13;;;-2.10;100.00;;;;;;5061591;28;20044;-74
2024/02/26 06:27:16;;;;;;;5.97;3.60;;;-2.10;100.00;;;;;;5044708;28;20098;-74
2024/02/26 06:29:43;;;;;;;7.20;3.92;;;-2.10;100.00;;;;;;5045484;28;20148;-74
2024/02/26 06:32:10;;;;;;;8.80;3.22;;;-2.10;100.00;;;;;;5046448;28;20577;-74
2024/02/26 06:34:38;;;;;;;7.95;3.05;;;-2.00;100.00;;;;;;5045905;28;20095;-74
2024/02/26 06:37:05;;;;;;;7.67;2.83;;;-2.00;100.00;;;;;;5050706;28;20049;-74
2024/02/26 06:39:32;;;;;;;5.72;3.42;;;-2.00;100.00;;;;;;5044698;28;20517;-74
2024/02/26 06:42:02;;;;;;;9.50;4.30;;;-1.90;100.00;;;;;;5045181;28;20080;-74
2024/02/26 06:44:31;;;;;;;4.95;2.85;;;-1.90;100.00;;;;;;5044463;28;20080;-74
2024/02/26 06:46:59;;;;;;;9.75;3.55;;;-1.90;100.00;;;;;;5052661;28;20123;-75
2024/02/26 06:49:27;;;;;;;6.18;3.67;;;-1.80;100.00;;;;;;5049981;28;20052;-75
2024/02/26 06:51:54;;;;;;;11.00;4.90;;;-1.80;100.00;;;;;;5054635;28;20123;-75
2024/02/26 06:54:21;;;;;;;6.43;2.78;;;-1.70;100.00;;;;;;5068530;28;20049;-75
2024/02/26 06:56:47;;;;;;;8.88;4.03;;;-1.70;100.00;;;;;;5041948;28;21007;-75
2024/02/26 06:59:14;;;;;;;9.77;5.32;;;-1.60;100.00;;;;;;5047205;28;20635;-74
2024/02/26 07:01:42;;;;;;;7.38;3.88;;;-1.50;100.00;;;;;;5047209;28;20060;-75
2024/02/26 07:04:10;;;;;;;7.72;4.10;;;-1.50;100.00;;;;;;5055122;28;20071;-74
2024/02/26 07:06:37;;;;;;;15.77;5.78;;;-1.50;100.00;;;;;;5052737;28;20758;-74
2024/02/26 07:09:04;;;;;;;9.50;4.65;;;-1.40;100.00;;;;;;5052697;28;20041;-74
2024/02/26 07:11:31;;;;;;;20.85;9.52;;;-1.30;100.00;;;;;;5048023;28;20057;-75
2024/02/26 07:13:58;;;;;;;25.98;10.68;;;-1.20;100.00;;;;;;5044246;28;20110;-75
2024/02/26 07:16:26;;;;;;;25.38;10.82;;;-1.10;100.00;;;;;;5043494;28;20053;-75
2024/02/26 07:18:53;;;;;;;22.08;10.30;;;-1.00;100.00;;;;;;5044190;28;20048;-75
2024/02/26 07:21:20;;;;;;;14.82;7.93;;;-1.00;100.00;;;;;;5047526;28;20054;-74
2024/02/26 07:23:47;;;;;;;11.35;5.82;;;-0.90;100.00;;;;;;5054777;28;20441;-75
2024/02/26 07:26:14;;;;;;;12.35;4.97;;;-0.80;100.00;;;;;;5051410;28;20139;-74
2024/02/26 07:28:41;;;;;;;8.05;3.80;;;-0.70;100.00;;;;;;5054287;28;20918;-74
2024/02/26 07:31:08;;;;;;;11.07;5.25;;;-0.70;100.00;;;;;;5043812;28;20044;-74
2024/02/26 07:33:35;;;;;;;11.00;3.95;;;-0.70;100.00;;;;;;5045011;28;20045;-73
2024/02/26 07:36:02;;;;;;;9.30;4.40;;;-0.50;100.00;;;;;;5051502;28;20060;-74
2024/02/26 07:38:29;;;;;;;11.75;3.88;;;-0.50;100.00;;;;;;5042843;28;20060;-73
2024/02/26 07:41:08;;;;;;;10.88;5.57;;;-0.40;100.00;;;;;;5043955;28;20123;-74
2024/02/26 07:43:35;;;;;;;12.85;5.35;;;-0.30;100.00;;;;;;5042669;28;20045;-74
2024/02/26 07:46:02;;;;;;;16.05;7.32;;;-0.30;100.00;;;;;;5042507;28;20135;-74
2024/02/26 07:48:29;;;;;;;10.55;5.35;;;-0.20;100.00;;;;;;5042429;28;20076;-74
2024/02/26 07:50:58;;;;;;;13.57;5.50;;;-0.10;100.00;;;;;;5043910;28;20044;-74
2024/02/26 07:53:26;;;;;;;12.13;5.75;;;-0.10;100.00;;;;;;5057126;28;20809;-74
2024/02/26 07:55:52;;;;;;;10.10;5.00;;;0.00;100.00;;;;;;5038973;28;20080;-74
2024/02/26 07:58:19;;;;;;;11.68;5.05;;;0.00;100.00;;;;;;5056901;28;20041;-74
2024/02/26 08:00:46;;;;;;;12.63;5.38;;;0.10;100.00;;;;;;5041869;28;20063;-73
2024/02/26 08:03:15;;;;;;;11.35;5.55;;;0.20;100.00;;;;;;5048154;28;20048;-74
2024/02/26 08:05:43;;;;;;;11.40;4.63;;;0.30;100.00;;;;;;5043128;28;20153;-74
2024/02/26 08:08:10;;;;;;;9.20;4.60;;;0.40;100.00;;;;;;5045488;28;20534;-74
2024/02/26 08:10:37;;;;;;;10.30;5.10;;;0.50;100.00;;;;;;5044192;28;20109;-76
2024/02/26 08:13:06;;;;;;;9.35;4.82;;;0.60;100.00;;;;;;5044327;28;20504;-81
2024/02/26 08:15:34;;;;;;;10.43;4.78;;;0.70;100.00;;;;;;5048177;28;20048;-78
2024/02/26 08:18:03;;;;;;;9.80;5.18;;;0.80;100.00;;;;;;5050027;28;20852;-75
2024/02/26 08:20:31;;;;;;;17.08;5.78;;;0.90;100.00;;;;;;5044638;28;20056;-77
2024/02/26 08:22:57;;;;;;;9.35;5.22;;;1.00;100.00;;;;;;5059322;28;20063;-82
2024/02/26 08:25:25;;;;;;;8.77;4.65;;;1.10;100.00;;;;;;5048575;28;20045;-79
2024/02/26 08:27:52;;;;;;;13.52;6.20;;;1.30;100.00;;;;;;5049382;28;20049;-79
2024/02/26 08:30:19;;;;;;;13.68;6.10;;;1.50;100.00;;;;;;5045791;28;20045;-80
2024/02/26 08:32:47;;;;;;;13.50;5.30;;;1.70;100.00;;;;;;5052295;28;20049;-80
2024/02/26 08:35:18;;;;;;;12.63;5.28;;;2.00;100.00;;;;;;5047307;28;20583;-81
2024/02/26 08:37:47;;;;;;;9.60;6.40;;;2.40;100.00;;;;;;5055010;28;20049;-82
2024/02/26 08:40:14;;;;;;;15.57;6.68;;;2.70;100.00;;;;;;5048465;28;20037;-80
2024/02/26 08:42:41;;;;;;;33.83;9.30;;;2.70;100.00;;;;;;5048229;28;20052;-81
2024/02/26 08:45:09;;;;;;;15.35;8.13;;;2.90;100.00;;;;;;5047964;28;20094;-80
2024/02/26 08:47:36;;;;;;;18.15;8.63;;;3.10;100.00;;;;;;5047588;28;20103;-81
2024/02/26 08:50:04;;;;;;;24.92;10.77;;;3.30;100.00;;;;;;5046998;28;20052;-70
2024/02/26 08:52:31;;;;;;;24.55;11.20;;;3.40;100.00;;;;;;5042383;28;20077;-79
2024/02/26 08:54:58;;;;;;;19.25;10.38;;;3.60;100.00;;;;;;5043217;28;20087;-73
2024/02/26 08:57:26;;;;;;;17.95;9.20;;;3.80;100.00;;;;;;5041596;28;20049;-73
2024/02/26 08:59:54;;;;;;;23.85;8.13;;;3.90;100.00;;;;;;5035982;28;20135;-74
2024/02/26 09:02:20;;;;;;;10.73;5.95;;;4.10;100.00;;;;;;5046500;28;20041;-73
2024/02/26 09:04:47;;;;;;;11.40;6.30;;;4.10;100.00;;;;;;5045645;28;20508;-73
2024/02/26 09:07:14;;;;;;;8.43;4.70;;;4.10;100.00;;;;;;5045296;28;20214;-73
2024/02/26 09:09:41;;;;;;;12.82;5.05;;;4.30;100.00;;;;;;5061570;28;20096;-72
2024/02/26 09:12:08;;;;;;;7.15;4.72;;;4.40;100.00;;;;;;5054873;28;20049;-72
2024/02/26 09:14:35;;;;;;;9.13;5.13;;;4.50;100.00;;;;;;5043679;28;20049;-73
2024/02/26 09:17:03;;;;;;;17.13;5.28;;;4.70;100.00;;;;;;5046102;28;20057;-74
2024/02/26 09:19:30;;;;;;;8.18;5.13;;;4.90;100.00;;;;;;5044051;28;20041;-73
2024/02/26 09:21:58;;;;;;;8.15;5.00;;;5.00;100.00;;;;;;5045622;28;20112;-74
2024/02/26 09:24:26;;;;;;;9.70;5.63;;;5.10;100.00;;;;;;5046816;28;20701;-73
2024/02/26 09:26:53;;;;;;;128.73;15.35;;;5.20;100.00;;;;;;5046761;28;20488;-75
2024/02/26 09:29:19;;;;;;;47.05;9.52;;;5.20;100.00;;;;;;5045239;28;20639;-75
2024/02/26 09:31:49;;;;;;;9.52;4.95;;;5.40;100.00;;;;;;5046075;28;20060;-76
2024/02/26 09:34:16;;;;;;;9.73;4.75;;;5.50;100.00;;;;;;5046832;28;20119;-75
2024/02/26 09:36:43;;;;;;;7.82;5.18;;;5.60;100.00;;;;;;5047673;28;20051;-76
2024/02/26 09:39:11;;;;;;;10.65;5.40;;;5.90;100.00;;;;;;5050046;28;20052;-76
2024/02/26 09:41:39;;;;;;;8.70;5.25;;;6.20;100.00;;;;;;5045670;28;20548;-75
2024/02/26 09:44:06;;;;;;;9.55;5.18;;;6.40;100.00;;;;;;5047127;28;20049;-76
2024/02/26 09:46:33;;;;;;;8.32;4.68;;;6.70;100.00;;;;;;5053335;28;20102;-76
2024/02/26 09:49:00;;;;;;;6.95;4.65;;;6.80;100.00;;;;;;5047072;28;20053;-76
2024/02/26 09:51:28;;;;;;;6.95;4.10;;;6.90;100.00;;;;;;5041571;28;20053;-76
2024/02/26 09:54:00;;;;;;;8.45;4.70;;;7.00;100.00;;;;;;5037489;28;20135;-74
2024/02/26 09:56:29;;;;;;;8.20;4.32;;;7.20;100.00;;;;;;5048031;28;20049;-75
2024/02/26 09:58:57;;;;;;;8.10;4.80;;;7.30;100.00;;;;;;5059418;28;20049;-75
2024/02/26 10:01:25;;;;;;;9.45;3.90;;;7.30;100.00;;;;;;5045956;28;20168;-75
2024/02/26 10:03:56;;;;;;;9.38;4.63;;;7.40;100.00;;;;;;5045137;28;20045;-76
2024/02/26 10:06:26;;;;;;;8.02;4.63;;;7.60;100.00;;;;;;5046675;28;20102;-76
2024/02/26 10:08:55;;;;;;;7.40;4.43;;;7.60;100.00;;;;;;5045872;28;20053;-76
2024/02/26 10:11:23;;;;;;;9.00;5.15;;;7.70;100.00;;;;;;5051703;28;20470;-75
2024/02/26 10:13:50;;;;;;;7.40;4.38;;;7.80;100.00;;;;;;5046877;28;20091;-76
2024/02/26 10:16:17;;;;;;;7.05;4.45;;;8.00;100.00;;;;;;5046476;28;20106;-76
2024/02/26 10:18:50;;;;;;;10.18;5.05;;;8.10;100.00;;;;;;5044594;28;20049;-76
2024/02/26 10:21:25;;;;;;;5.40;3.83;;;8.30;100.00;;;;;;5040535;28;20049;-76
2024/02/26 10:23:53;;;;;;;8.65;5.40;;;8.30;100.00;;;;;;5044925;28;20123;-76
2024/02/26 10:26:20;;;;;;;7.35;4.57;;;8.30;100.00;;;;;;5046983;28;20049;-76
2024/02/26 10:28:47;;;;;;;9.25;4.65;;;8.50;100.00;;;;;;5045855;28;20546;-76
2024/02/26 10:31:18;;;;;;;11.90;5.28;;;8.70;100.00;;;;;;5046938;28;20053;-76
2024/02/26 10:33:45;;;;;;;10.13;4.45;;;8.80;100.00;;;;;;5045229;28;20547;-77
2024/02/26 10:36:12;;;;;;;8.88;4.82;;;8.80;100.00;;;;;;5047585;28;20040;-77
2024/02/26 10:38:40;;;;;;;9.48;4.32;;;8.80;100.00;;;;;;5047852;28;20116;-76
2024/02/26 10:41:08;;;;;;;7.75;4.60;;;8.90;100.00;;;;;;5042923;28;20084;-77
2024/02/26 10:43:35;;;;;;;7.35;4.30;;;8.90;100.00;;;;;;5045702;28;20230;-76
2024/02/26 10:46:02;;;;;;;7.45;4.65;;;8.80;100.00;;;;;;5044858;28;20044;-76
2024/02/26 10:48:28;;;;;;;12.35;4.55;;;8.90;100.00;;;;;;5049262;28;20122;-76
2024/02/26 10:50:57;;;;;;;9.55;5.03;;;8.90;100.00;;;;;;5045672;28;20080;-76
2024/02/26 10:53:26;;;;;;;9.73;5.68;;;9.00;100.00;;;;;;5044974;28;20079;-76
2024/02/26 10:56:05;;;;;;;10.00;5.32;;;9.00;100.00;;;;;;5044147;28;20084;-76
2024/02/26 10:58:32;;;;;;;9.68;4.88;;;9.00;100.00;;;;;;5043867;28;20052;-76
2024/02/26 11:00:59;;;;;;;10.27;5.32;;;9.00;100.00;;;;;;5044585;28;20045;-76
2024/02/26 11:03:31;;;;;;;7.28;4.80;;;9.00;100.00;;;;;;5043706;28;20048;-76
2024/02/26 11:06:00;;;;;;;9.18;4.63;;;9.20;100.00;;;;;;5042873;28;20049;-74
2024/02/26 11:08:30;;;;;;;12.07;4.65;;;9.30;100.00;;;;;;5044626;28;20070;-76
2024/02/26 11:10:57;;;;;;;10.45;4.32;;;9.50;100.00;;;;;;5044736;28;20889;-75
2024/02/26 11:13:29;;;;;;;11.20;4.00;;;9.70;100.00;;;;;;5042750;28;20059;-76
2024/02/26 11:15:58;;;;;;;7.32;4.03;;;9.70;100.00;;;;;;5039987;28;20044;-75
2024/02/26 11:18:27;;;;;;;11.32;4.20;;;9.70;100.00;;;;;;5041442;28;20041;-75
2024/02/26 11:20:57;;;;;;;14.55;4.32;;;9.80;100.00;;;;;;5049572;28;20729;-76
2024/02/26 11:23:24;;;;;;;8.23;5.07;;;10.00;100.00;;;;;;5044917;28;20045;-75
2024/02/26 11:25:54;;;;;;;18.55;4.10;;;10.20;100.00;;;;;;5047937;28;20048;-75
2024/02/26 11:28:22;;;;;;;6.78;3.50;;;10.40;100.00;;;;;;5045579;28;20128;-76
2024/02/26 11:30:50;;;;;;;8.55;3.65;;;10.60;100.00;;;;;;5052815;28;20049;-76
2024/02/26 11:33:20;;;;;;;9.50;4.00;;;10.70;100.00;;;;;;5043296;28;20050;-76
2024/02/26 11:35:47;;;;;;;7.57;3.70;;;10.80;100.00;;;;;;5041198;28;20131;-76
2024/02/26 11:38:21;;;;;;;7.22;3.35;;;11.00;100.00;;;;;;5044586;28;20685;-76
2024/02/26 11:40:48;;;;;;;5.57;3.45;;;11.30;100.00;;;;;;5052898;28;20060;-76
2024/02/26 11:43:15;;;;;;;12.18;3.88;;;11.40;100.00;;;;;;5044642;28;20045;-76
2024/02/26 11:45:43;;;;;;;6.28;3.60;;;11.50;100.00;;;;;;5051449;28;20065;-76
2024/02/26 11:48:13;;;;;;;13.63;3.95;;;11.70;100.00;;;;;;5055191;28;20059;-76
2024/02/26 11:50:43;;;;;;;8.77;3.50;;;11.70;100.00;;;;;;5052555;28;20055;-75
2024/02/26 11:53:30;;;;;;;4.70;3.13;;;11.80;100.00;;;;;;5043702;28;20072;-76
2024/02/26 11:56:21;;;;;;;10.23;3.63;;;11.70;100.00;;;;;;5044812;28;20492;-78
2024/02/26 11:58:53;;;;;;;13.20;3.25;;;11.80;100.00;;;;;;5052475;28;20102;-76
2024/02/26 12:01:42;;;;;;;114.35;16.67;;;12.00;100.00;;;;;;5042226;28;20049;-75
2024/02/26 12:04:16;;;;;;;9.45;4.03;;;12.40;100.00;;;;;;5057580;28;20053;-74
2024/02/26 12:06:51;;;;;;;8.40;4.53;;;12.30;100.00;;;;;;5058550;28;20045;-74
2024/02/26 12:09:36;;;;;;;6.03;3.35;;;12.30;100.00;;;;;;5044260;28;20049;-74
2024/02/26 12:12:06;;;;;;;7.00;3.47;;;12.30;100.00;;;;;;5043822;28;20048;-74
2024/02/26 12:14:35;;;;;;;6.10;3.40;;;12.00;100.00;;;;;;5043311;28;20456;-74
2024/02/26 12:17:06;;;;;;;6.00;3.53;;;11.70;100.00;;;;;;5046715;28;20059;-76
2024/02/26 12:19:36;;;;;;;5.25;3.30;;;11.60;100.00;;;;;;5053144;28;20048;-76
2024/02/26 12:22:08;;;;;;;5.50;3.08;;;11.50;100.00;;;;;;5046308;28;20045;-73
2024/02/26 12:24:35;;;;;;;4.78;2.90;;;11.40;100.00;;;;;;5043626;28;20124;-75
2024/02/26 12:27:03;;;;;;;4.05;3.08;;;11.20;100.00;;;;;;5050429;28;20068;-72
2024/02/26 12:29:30;;;;;;;7.80;3.38;;;11.10;100.00;;;;;;5051901;28;20128;-76
2024/02/26 12:31:57;;;;;;;5.18;3.00;;;11.00;100.00;;;;;;5041920;28;20123;-73
2024/02/26 12:34:24;;;;;;;9.30;3.08;;;11.00;100.00;;;;;;5046535;28;20048;-74
2024/02/26 12:36:53;;;;;;;6.88;3.40;;;11.00;100.00;;;;;;5048395;28;20915;-75
2024/02/26 12:39:20;;;;;;;9.32;3.55;;;10.90;100.00;;;;;;5049533;28;20090;-74